Liberta — V2CM3 — position and weather

sailwx.info

Track history (hours):
 
Tides and Currents Weather Stations Pressure Air Temp Water Temp Dewpoint Dewpoint Depression Visibility Wind Speed Wind Dir Waves Ship Positions

Liberta

Last reported at 2015-Jun-29 01:29 UTC. Time now 2015-Jul-04 15:23 UTC.
Position N 40°59' E 028°60'.

Length 138 m; draft 7.9 m.

Type: Cargo ship. MMSI: 305043000.

Date/timePositionNaut miles runAvg speedWind from/ knotsBaromVisibWave heightAir tempDewpointWater temp
2015-Jun-29 01:29N 40°59' E 028°60'7 6.6
2015-Jun-29 00:22N 40°52' E 029°01'5 5.8
2015-Jun-28 23:33N 40°48' E 028°59'2 2.1
2015-Jun-28 22:26N 40°49' E 028°57'3 2.7
2015-Jun-28 21:31N 40°51' E 028°54'  
2015-Jun-26 00:21N 36°32' E 015°16'2512.8
2015-Jun-25 22:23N 36°36' E 014°45'1112.6
2015-Jun-25 21:30N 36°38' E 014°32'1212.7
2015-Jun-25 20:33N 36°42' E 014°18'1312.7
2015-Jun-25 19:33N 36°45' E 014°02'1313.1
2015-Jun-25 18:33N 36°48' E 013°46'4413.3
2015-Jun-25 15:17N 36°59' E 012°54'2612.7
2015-Jun-25 13:15N 37°05' E 012°22'2110.5
2015-Jun-25 11:14N 37°10' E 011°56'710.4
2015-Jun-25 10:33N 37°12' E 011°48'1010.5
2015-Jun-25 09:33N 37°15' E 011°35'1110.6
2015-Jun-25 08:33N 37°17' E 011°22'1110.6
2015-Jun-25 07:33N 37°21' E 011°10'6512.8
2015-Jun-25 02:27N 37°31' E 009°49'29912.0
2015-Jun-24 01:33N 37°11' E 003°33'1413.3
2015-Jun-24 00:32N 37°08' E 003°16'1413.8
2015-Jun-23 23:33N 37°06' E 002°59'3812.1
2015-Jun-23 20:26N 36°58' E 002°13'8 9.6
2015-Jun-23 19:33N 36°56' E 002°03'5 9.6
2015-Jun-23 19:03N 36°55' E 001°57'34811.6
2015-Jun-22 13:05N 35°60' W 005°09'611.7
2015-Jun-22 12:33N 35°59' W 005°17'108 6.3
2015-Jun-21 19:29N 36°31' W 007°25'1212.3
2015-Jun-21 18:29N 36°21' W 007°34'1213.0
2015-Jun-21 17:33N 36°12' W 007°44'14313.0
2015-Jun-21 06:32N 34°21' W 009°33'1312.9
2015-Jun-21 05:33N 34°11' W 009°43'1313.0
2015-Jun-21 04:33N 34°00' W 009°53'1712.7
2015-Jun-21 03:12N 33°47' W 010°06'2512.7
2015-Jun-21 01:15N 33°28' W 010°24'1012.5
2015-Jun-21 00:27N 33°20' W 010°32'1312.6
2015-Jun-20 23:23N 33°09' W 010°42'1112.5
2015-Jun-20 22:32N 33°01' W 010°50'1212.6
2015-Jun-20 21:33N 32°51' W 010°59'1212.3
2015-Jun-20 20:33N 32°42' W 011°08'2512.0
2015-Jun-20 18:30N 32°22' W 011°27'8512.2
2015-Jun-20 11:33N 31°16' W 012°29'12612.6
2015-Jun-20 01:30N 29°38' W 014°00'1212.1
2015-Jun-20 00:31N 29°28' W 014°09'1211.9
2015-Jun-19 23:30N 29°19' W 014°18'1111.7
2015-Jun-19 22:33N 29°10' W 014°25'1311.6
2015-Jun-19 21:24N 28°60' W 014°35'1011.8
2015-Jun-19 20:33N 28°52' W 014°42'1312.1
2015-Jun-19 19:30N 28°42' W 014°51'1112.2
2015-Jun-19 18:33N 28°33' W 014°60'1312.8
2015-Jun-19 17:33N 28°23' W 015°09'1312.7
2015-Jun-19 16:33N 28°13' W 015°17'8 7.4
2015-Jun-19 15:31N 28°08' W 015°25'0 0.2
2015-Jun-19 14:31N 28°08' W 015°24'0 0.0
2015-Jun-19 13:31N 28°08' W 015°24'0 0.0
2015-Jun-19 12:31N 28°08' W 015°24'0 0.0
2015-Jun-19 11:31N 28°08' W 015°24'0 0.0
2015-Jun-19 10:31N 28°08' W 015°24'0 0.0
2015-Jun-19 09:22N 28°08' W 015°24'0 0.0
2015-Jun-19 08:22N 28°08' W 015°24'0 0.0
2015-Jun-19 07:25N 28°08' W 015°24'0 0.0
2015-Jun-19 06:25N 28°08' W 015°24'0 0.0
2015-Jun-19 05:28N 28°08' W 015°24'0 0.0
2015-Jun-19 04:28N 28°08' W 015°24'2 2.6
2015-Jun-19 03:33N 28°07' W 015°23'1110.6
2015-Jun-19 02:33N 27°57' W 015°17'1211.6
2015-Jun-19 01:33N 27°46' W 015°20'  
Track history (hours):
 
Tides and Currents Weather Stations Pressure Air Temp Water Temp Dewpoint Dewpoint Depression Visibility Wind Speed Wind Dir Waves Ship Positions

Liberta

Last reported at 2015-Jun-29 01:29 UTC. Time now 2015-Jul-04 15:23 UTC.
Position N 40°59' E 028°60'.

Length 138 m; draft 7.9 m.

Type: Cargo ship. MMSI: 305043000.

Date/timePositionNaut miles runAvg speedWind from/ knotsBaromVisibWave heightAir tempDewpointWater temp
2015-Jun-29 01:29N 40°59' E 028°60'7 6.6
2015-Jun-29 00:22N 40°52' E 029°01'5 5.8
2015-Jun-28 23:33N 40°48' E 028°59'2 2.1
2015-Jun-28 22:26N 40°49' E 028°57'3 2.7
2015-Jun-28 21:31N 40°51' E 028°54'  
2015-Jun-26 00:21N 36°32' E 015°16'2512.8
2015-Jun-25 22:23N 36°36' E 014°45'1112.6
2015-Jun-25 21:30N 36°38' E 014°32'1212.7
2015-Jun-25 20:33N 36°42' E 014°18'1312.7
2015-Jun-25 19:33N 36°45' E 014°02'1313.1
2015-Jun-25 18:33N 36°48' E 013°46'4413.3
2015-Jun-25 15:17N 36°59' E 012°54'2612.7
2015-Jun-25 13:15N 37°05' E 012°22'2110.5
2015-Jun-25 11:14N 37°10' E 011°56'710.4
2015-Jun-25 10:33N 37°12' E 011°48'1010.5
2015-Jun-25 09:33N 37°15' E 011°35'1110.6
2015-Jun-25 08:33N 37°17' E 011°22'1110.6
2015-Jun-25 07:33N 37°21' E 011°10'6512.8
2015-Jun-25 02:27N 37°31' E 009°49'29912.0
2015-Jun-24 01:33N 37°11' E 003°33'1413.3
2015-Jun-24 00:32N 37°08' E 003°16'1413.8
2015-Jun-23 23:33N 37°06' E 002°59'3812.1
2015-Jun-23 20:26N 36°58' E 002°13'8 9.6
2015-Jun-23 19:33N 36°56' E 002°03'5 9.6
2015-Jun-23 19:03N 36°55' E 001°57'34811.6
2015-Jun-22 13:05N 35°60' W 005°09'611.7
2015-Jun-22 12:33N 35°59' W 005°17'108 6.3
2015-Jun-21 19:29N 36°31' W 007°25'1212.3
2015-Jun-21 18:29N 36°21' W 007°34'1213.0
2015-Jun-21 17:33N 36°12' W 007°44'14313.0
2015-Jun-21 06:32N 34°21' W 009°33'1312.9
2015-Jun-21 05:33N 34°11' W 009°43'1313.0
2015-Jun-21 04:33N 34°00' W 009°53'1712.7
2015-Jun-21 03:12N 33°47' W 010°06'2512.7
2015-Jun-21 01:15N 33°28' W 010°24'1012.5
2015-Jun-21 00:27N 33°20' W 010°32'1312.6
2015-Jun-20 23:23N 33°09' W 010°42'1112.5
2015-Jun-20 22:32N 33°01' W 010°50'1212.6
2015-Jun-20 21:33N 32°51' W 010°59'1212.3
2015-Jun-20 20:33N 32°42' W 011°08'2512.0
2015-Jun-20 18:30N 32°22' W 011°27'8512.2
2015-Jun-20 11:33N 31°16' W 012°29'12612.6
2015-Jun-20 01:30N 29°38' W 014°00'1212.1
2015-Jun-20 00:31N 29°28' W 014°09'1211.9
2015-Jun-19 23:30N 29°19' W 014°18'1111.7
2015-Jun-19 22:33N 29°10' W 014°25'1311.6
2015-Jun-19 21:24N 28°60' W 014°35'1011.8
2015-Jun-19 20:33N 28°52' W 014°42'1312.1
2015-Jun-19 19:30N 28°42' W 014°51'1112.2
2015-Jun-19 18:33N 28°33' W 014°60'1312.8
2015-Jun-19 17:33N 28°23' W 015°09'1312.7
2015-Jun-19 16:33N 28°13' W 015°17'8 7.4
2015-Jun-19 15:31N 28°08' W 015°25'0 0.2
2015-Jun-19 14:31N 28°08' W 015°24'0 0.0
2015-Jun-19 13:31N 28°08' W 015°24'0 0.0
2015-Jun-19 12:31N 28°08' W 015°24'0 0.0
2015-Jun-19 11:31N 28°08' W 015°24'0 0.0
2015-Jun-19 10:31N 28°08' W 015°24'0 0.0
2015-Jun-19 09:22N 28°08' W 015°24'0 0.0
2015-Jun-19 08:22N 28°08' W 015°24'0 0.0
2015-Jun-19 07:25N 28°08' W 015°24'0 0.0
2015-Jun-19 06:25N 28°08' W 015°24'0 0.0
2015-Jun-19 05:28N 28°08' W 015°24'0 0.0
2015-Jun-19 04:28N 28°08' W 015°24'2 2.6
2015-Jun-19 03:33N 28°07' W 015°23'1110.6
2015-Jun-19 02:33N 27°57' W 015°17'1211.6
2015-Jun-19 01:33N 27°46' W 015°20'  

Dump ship's entire track history